Terminal Aerodrome Forecast
Issued by NWS

Home | Current Version | Previous Version | Text Only | Print | Product List | Glossary On
Versions: 1 2 3 4 5 6 7 8 9 10 11 12 13
000
FTUS42 KTBW 232320
TAFRSW
TAF
KRSW 232320Z 2400/2424 23009KT P6SM SCT030
     FM240200 32006KT P6SM SCT035
     FM240800 36005KT 6SM BR SCT005 BKN025
     FM241400 03007KT P6SM SCT020
     FM241900 32006KT P6SM SCT040=

USA.gov is the U.S. government's official web portal to all federal, state and local government web resources and services.